createdAt,value
2018-06-09T00:00:05.265Z,26.6
2018-06-09T00:02:05.037Z,26.6
2018-06-09T00:04:07.548Z,26.6
2018-06-09T00:06:05.470Z,26.6
2018-06-09T00:08:05.121Z,26.6
2018-06-09T00:10:04.859Z,26.6
2018-06-09T00:12:05.532Z,26.6
2018-06-09T00:14:07.859Z,26.6
2018-06-09T00:16:05.577Z,26.6
2018-06-09T00:18:05.472Z,26.6
2018-06-09T00:20:05.219Z,26.6
2018-06-09T00:22:04.725Z,26.6
2018-06-09T00:24:05.035Z,26.6
2018-06-09T00:26:07.264Z,26.5
2018-06-09T00:28:07.494Z,26.5
2018-06-09T00:30:07.721Z,26.5
2018-06-09T00:32:05.413Z,26.5
2018-06-09T00:34:05.093Z,26.5
2018-06-09T00:36:04.788Z,26.5
2018-06-09T00:38:05.014Z,26.4
2018-06-09T00:40:07.324Z,26.5
2018-06-09T00:42:04.981Z,26.5
2018-06-09T00:44:04.625Z,26.5
2018-06-09T00:46:05.366Z,26.5
2018-06-09T00:48:07.617Z,26.5
2018-06-09T00:50:07.824Z,26.5
2018-06-09T00:52:05.122Z,26.5
2018-06-09T00:54:04.870Z,26.5
2018-06-09T00:56:05.564Z,26.5
2018-06-09T00:58:05.292Z,26.5
2018-06-09T01:00:08.177Z,26.5
2018-06-09T01:02:04.860Z,26.5
2018-06-09T01:04:05.417Z,26.5
2018-06-09T01:06:07.636Z,26.5
2018-06-09T01:08:04.876Z,26.5
2018-06-09T01:10:05.137Z,26.5
2018-06-09T01:12:04.909Z,26.5
2018-06-09T01:14:07.324Z,26.5
2018-06-09T01:16:05.654Z,26.5
2018-06-09T01:18:04.827Z,26.5
2018-06-09T01:20:05.583Z,26.5
2018-06-09T01:22:10.368Z,26.5
2018-06-09T01:24:05.241Z,26.5
2018-06-09T01:26:05.012Z,26.5
2018-06-09T01:28:05.168Z,26.5
2018-06-09T01:30:05.310Z,26.5
2018-06-09T01:32:05.291Z,26.5
2018-06-09T01:34:05.483Z,26.5
2018-06-09T01:36:05.559Z,26.5
2018-06-09T01:38:05.551Z,26.5
2018-06-09T01:40:14.144Z,26.5
2018-06-09T01:42:04.642Z,26.5
2018-06-09T01:44:05.309Z,26.5
2018-06-09T01:46:05.079Z,26.5
2018-06-09T01:48:04.797Z,26.5
2018-06-09T01:50:05.492Z,26.5
2018-06-09T01:52:05.273Z,26.4
2018-06-09T01:54:05.011Z,26.5
2018-06-09T01:56:04.808Z,26.5
2018-06-09T01:58:05.499Z,26.5
2018-06-09T02:00:05.176Z,26.5
2018-06-09T02:02:04.891Z,26.5
2018-06-09T02:04:04.747Z,26.5
2018-06-09T02:06:05.398Z,26.5
2018-06-09T02:08:05.092Z,26.5
2018-06-09T02:10:04.843Z,26.5
2018-06-09T02:12:05.523Z,26.5
2018-06-09T02:14:04.795Z,26.4
2018-06-09T02:16:05.477Z,26.4
2018-06-09T02:18:10.543Z,26.4
2018-06-09T02:20:07.738Z,26.4
2018-06-09T02:22:08.254Z,26.4
2018-06-09T02:24:07.510Z,26.4
2018-06-09T02:26:07.259Z,26.4
2018-06-09T02:28:10.295Z,26.4
2018-06-09T02:30:07.386Z,26.3
2018-06-09T02:32:10.119Z,26.3
2018-06-09T02:34:04.819Z,26.3
2018-06-09T02:36:04.707Z,26.3
2018-06-09T02:38:07.950Z,26.3
2018-06-09T02:40:07.389Z,26.3
2018-06-09T02:42:05.157Z,26.3
2018-06-09T02:44:05.942Z,26.2
2018-06-09T02:46:05.311Z,26.3
2018-06-09T02:48:08.057Z,26.3
2018-06-09T02:50:04.732Z,26.2
2018-06-09T02:52:05.417Z,26.2
2018-06-09T02:54:05.094Z,26.2
2018-06-09T02:56:04.852Z,26.2
2018-06-09T02:58:05.559Z,26.2
2018-06-09T03:00:05.253Z,26.2
2018-06-09T03:02:04.970Z,26.1
2018-06-09T03:04:04.704Z,26.2
2018-06-09T03:06:05.011Z,26.2
2018-06-09T03:08:04.714Z,26.1
2018-06-09T03:10:05.436Z,26.1
2018-06-09T03:12:05.113Z,26.2
2018-06-09T03:14:04.793Z,26.2
2018-06-09T03:16:05.646Z,26.1
2018-06-09T03:18:05.678Z,26.1
2018-06-09T03:20:05.406Z,26.1
2018-06-09T03:22:05.612Z,26.1
2018-06-09T03:24:05.285Z,26.1
2018-06-09T03:26:05.004Z,26.1
2018-06-09T03:28:17.844Z,26
2018-06-09T03:30:05.149Z,26
2018-06-09T03:32:07.462Z,26
2018-06-09T03:34:05.416Z,26
2018-06-09T03:36:07.703Z,26
2018-06-09T03:38:05.377Z,26
2018-06-09T03:40:05.107Z,26
2018-06-09T03:42:04.814Z,26
2018-06-09T03:44:05.521Z,25.9
2018-06-09T03:46:05.254Z,25.9
2018-06-09T03:48:04.974Z,26
2018-06-09T03:50:04.676Z,26
2018-06-09T03:52:05.385Z,25.9
2018-06-09T03:54:05.087Z,25.9
2018-06-09T03:56:04.837Z,25.9
2018-06-09T03:58:05.543Z,26
2018-06-09T04:00:12.813Z,25.9
2018-06-09T04:02:05.519Z,25.9
2018-06-09T04:04:05.264Z,25.9
2018-06-09T04:06:04.992Z,25.9
2018-06-09T04:08:04.693Z,25.9
2018-06-09T04:10:05.395Z,25.9
2018-06-09T04:12:05.573Z,25.9
2018-06-09T04:14:05.272Z,25.9
2018-06-09T04:16:05.286Z,25.9
2018-06-09T04:18:07.672Z,25.8
2018-06-09T04:20:05.383Z,25.8
2018-06-09T04:22:04.649Z,25.8
2018-06-09T04:24:05.303Z,25.8
2018-06-09T04:26:04.976Z,25.8
2018-06-09T04:28:04.667Z,25.9
2018-06-09T04:30:05.367Z,25.8
2018-06-09T04:32:05.053Z,25.8
2018-06-09T04:34:04.789Z,25.8
2018-06-09T04:36:10.513Z,25.8
2018-06-09T04:38:05.417Z,25.8
2018-06-09T04:40:05.038Z,25.8
2018-06-09T04:42:07.536Z,25.8
2018-06-09T04:44:05.538Z,25.8
2018-06-09T04:46:04.860Z,25.8
2018-06-09T04:48:08.569Z,25.7
2018-06-09T04:50:07.727Z,25.8
2018-06-09T04:52:04.679Z,25.8
2018-06-09T04:54:05.369Z,25.7
2018-06-09T04:56:05.072Z,25.8
2018-06-09T04:58:09.830Z,25.8
2018-06-09T05:00:05.519Z,25.8
2018-06-09T05:02:05.196Z,25.8
2018-06-09T05:04:04.939Z,25.8
2018-06-09T05:06:04.712Z,25.8
2018-06-09T05:08:05.051Z,25.8
2018-06-09T05:10:07.294Z,25.8
2018-06-09T05:12:05.539Z,25.7
2018-06-09T05:14:05.269Z,25.8
2018-06-09T05:16:05.507Z,25.8
2018-06-09T05:18:05.448Z,25.7
2018-06-09T05:20:05.097Z,25.7
2018-06-09T05:22:04.793Z,25.7
2018-06-09T05:24:05.464Z,25.6
2018-06-09T05:26:05.140Z,25.7
2018-06-09T05:28:05.319Z,25.6
2018-06-09T05:30:07.747Z,25.6
2018-06-09T05:32:05.451Z,25.5
2018-06-09T05:34:07.701Z,25.7
2018-06-09T05:36:05.455Z,25.7
2018-06-09T05:38:05.178Z,25.7
2018-06-09T05:40:04.947Z,25.7
2018-06-09T05:42:05.136Z,25.6
2018-06-09T05:44:04.838Z,25.6
2018-06-09T05:46:05.561Z,25.6
2018-06-09T05:48:05.225Z,25.6
2018-06-09T05:50:04.902Z,25.7
2018-06-09T05:52:04.602Z,25.7
2018-06-09T05:54:05.361Z,25.7
2018-06-09T05:56:07.624Z,25.7
2018-06-09T05:58:10.444Z,25.7
2018-06-09T06:00:05.123Z,25.7
2018-06-09T06:02:04.882Z,25.7
2018-06-09T06:04:10.638Z,25.6
2018-06-09T06:06:05.280Z,25.7
2018-06-09T06:08:07.490Z,25.7
2018-06-09T06:10:05.181Z,25.7
2018-06-09T06:12:07.351Z,25.7
2018-06-09T06:14:04.998Z,25.7
2018-06-09T06:16:05.229Z,25.6
2018-06-09T06:18:05.078Z,25.6
2018-06-09T06:20:05.287Z,25.7
2018-06-09T06:22:05.742Z,25.7
2018-06-09T06:24:10.513Z,25.6
2018-06-09T06:26:12.758Z,25.6
2018-06-09T06:28:07.990Z,25.6
2018-06-09T06:30:04.676Z,25.6
2018-06-09T06:32:07.936Z,25.6
2018-06-09T06:34:05.605Z,25.6
2018-06-09T06:36:05.271Z,25.6
2018-06-09T06:38:04.939Z,25.6
2018-06-09T06:40:04.619Z,25.6
2018-06-09T06:42:05.550Z,25.6
2018-06-09T06:44:05.283Z,25.6
2018-06-09T06:46:04.998Z,25.6
2018-06-09T06:48:07.814Z,25.7
2018-06-09T06:50:05.553Z,25.6
2018-06-09T06:52:05.264Z,25.6
2018-06-09T06:54:04.988Z,25.6
2018-06-09T06:56:04.682Z,25.6
2018-06-09T06:58:05.704Z,25.6
2018-06-09T07:00:05.431Z,25.6
2018-06-09T07:02:07.774Z,25.6
2018-06-09T07:04:10.530Z,25.6
2018-06-09T07:06:10.251Z,25.6
2018-06-09T07:08:07.673Z,25.6
2018-06-09T07:10:05.382Z,25.6
2018-06-09T07:12:05.047Z,25.6
2018-06-09T07:14:05.250Z,25.6
2018-06-09T07:16:05.515Z,25.6
2018-06-09T07:18:07.416Z,25.5
2018-06-09T07:20:05.110Z,25.5
2018-06-09T07:22:05.364Z,25.5
2018-06-09T07:24:04.680Z,25.6
2018-06-09T07:26:05.428Z,25.6
2018-06-09T07:28:05.123Z,25.6
2018-06-09T07:30:07.428Z,25.5
2018-06-09T07:32:12.683Z,25.6
2018-06-09T07:34:05.375Z,25.6
2018-06-09T07:36:05.074Z,25.5
2018-06-09T07:38:05.000Z,25.6
2018-06-09T07:40:05.245Z,25.6
2018-06-09T07:42:05.417Z,25.6
2018-06-09T07:44:08.023Z,25.6
2018-06-09T07:46:04.961Z,25.6
2018-06-09T07:48:12.249Z,25.4
2018-06-09T07:50:05.478Z,25.4
2018-06-09T07:52:07.667Z,25.3
2018-06-09T07:54:04.899Z,25.2
2018-06-09T07:56:05.373Z,25.4
2018-06-09T07:58:05.317Z,25.3
2018-06-09T08:00:05.019Z,25.3
2018-06-09T08:02:05.254Z,25.3
2018-06-09T08:04:05.564Z,25.3
2018-06-09T08:06:05.426Z,25.4
2018-06-09T08:08:04.644Z,25.4
2018-06-09T08:10:05.120Z,25.5
2018-06-09T08:12:05.322Z,25.5
2018-06-09T08:14:05.788Z,25.5
2018-06-09T08:16:05.496Z,25.5
2018-06-09T08:18:05.403Z,25.5
2018-06-09T08:20:05.270Z,25.5
2018-06-09T08:22:05.580Z,25.6
2018-06-09T08:24:04.845Z,25.6
2018-06-09T08:26:05.589Z,25.6
2018-06-09T08:28:05.299Z,25.6
2018-06-09T08:30:05.081Z,25.4
2018-06-09T08:32:05.284Z,25.5
2018-06-09T08:34:05.209Z,25.5
2018-06-09T08:36:05.101Z,25.4
2018-06-09T08:38:07.681Z,25.6
2018-06-09T08:40:10.650Z,25.6
2018-06-09T08:42:05.378Z,25.6
2018-06-09T08:44:05.506Z,25.6
2018-06-09T08:46:05.230Z,25.5
2018-06-09T08:48:04.938Z,25.6
2018-06-09T08:50:04.717Z,25.6
2018-06-09T08:52:05.597Z,25.6
2018-06-09T08:54:04.928Z,25.5
2018-06-09T08:56:05.566Z,25.6
2018-06-09T08:58:05.249Z,25.6
2018-06-09T09:00:04.935Z,25.6
2018-06-09T09:02:04.734Z,25.6
2018-06-09T09:04:05.463Z,25.7
2018-06-09T09:06:05.183Z,25.7
2018-06-09T09:08:05.385Z,25.7
2018-06-09T09:10:05.042Z,25.7
2018-06-09T09:12:04.727Z,25.7
2018-06-09T09:14:05.074Z,25.7
2018-06-09T09:16:04.792Z,25.7
2018-06-09T09:18:05.216Z,25.7
2018-06-09T09:20:04.903Z,25.7
2018-06-09T09:22:04.903Z,25.8
2018-06-09T09:24:05.145Z,25.7
2018-06-09T09:26:05.021Z,25.7
2018-06-09T09:28:04.761Z,25.8
2018-06-09T09:30:05.512Z,25.8
2018-06-09T09:32:07.832Z,25.8
2018-06-09T09:34:05.530Z,25.8
2018-06-09T09:36:05.186Z,25.8
2018-06-09T09:38:04.881Z,25.8
2018-06-09T09:40:05.128Z,25.9
2018-06-09T09:42:05.074Z,25.9
2018-06-09T09:44:04.774Z,25.9
2018-06-09T09:46:05.493Z,25.8
2018-06-09T09:48:05.169Z,25.9
2018-06-09T09:50:04.864Z,25.8
2018-06-09T09:52:05.198Z,25.7
2018-06-09T09:54:05.469Z,25.7
2018-06-09T09:56:05.179Z,25.7
2018-06-09T09:58:04.907Z,25.7
2018-06-09T10:00:05.632Z,25.7
2018-06-09T10:02:13.008Z,25.7
2018-06-09T10:04:05.233Z,25.7
2018-06-09T10:06:04.909Z,25.7
2018-06-09T10:08:05.604Z,25.8
2018-06-09T10:10:05.519Z,25.8
2018-06-09T10:12:05.303Z,25.8
2018-06-09T10:14:10.188Z,25.7
2018-06-09T10:16:04.893Z,25.8
2018-06-09T10:18:07.302Z,25.7
2018-06-09T10:20:05.608Z,25.7
2018-06-09T10:22:05.349Z,25.7
2018-06-09T10:24:05.038Z,25.6
2018-06-09T10:26:04.763Z,25.5
2018-06-09T10:28:05.487Z,25.6
2018-06-09T10:30:04.709Z,25.7
2018-06-09T10:32:05.419Z,25.7
2018-06-09T10:34:05.100Z,25.7
2018-06-09T10:36:04.841Z,25.7
2018-06-09T10:38:05.190Z,25.6
2018-06-09T10:40:04.854Z,25.6
2018-06-09T10:42:05.530Z,25.7
2018-06-09T10:44:05.193Z,25.8
2018-06-09T10:46:07.430Z,25.8
2018-06-09T10:48:05.154Z,25.8
2018-06-09T10:50:04.844Z,25.8
2018-06-09T10:52:10.633Z,25.8
2018-06-09T10:54:05.257Z,25.8
2018-06-09T10:56:05.448Z,25.8
2018-06-09T10:58:05.135Z,25.9
2018-06-09T11:00:05.378Z,25.9
2018-06-09T11:02:05.059Z,25.9
2018-06-09T11:04:04.763Z,25.9
2018-06-09T11:06:05.522Z,25.7
2018-06-09T11:08:05.251Z,25.7
2018-06-09T11:10:05.094Z,25.7
2018-06-09T11:12:07.599Z,25.9
2018-06-09T11:14:05.295Z,25.9
2018-06-09T11:16:04.952Z,25.9
2018-06-09T11:18:04.857Z,26
2018-06-09T11:20:05.540Z,26.1
2018-06-09T11:22:07.270Z,26
2018-06-09T11:24:05.003Z,26
2018-06-09T11:26:08.087Z,26.1
2018-06-09T11:28:05.335Z,26
2018-06-09T11:30:05.044Z,26.1
2018-06-09T11:32:04.763Z,25.8
2018-06-09T11:34:05.452Z,25.9
2018-06-09T11:36:05.154Z,25.9
2018-06-09T11:38:05.371Z,26
2018-06-09T11:40:05.129Z,26.1
2018-06-09T11:42:04.804Z,26.2
2018-06-09T11:44:07.300Z,26.2
2018-06-09T11:46:05.080Z,26.2
2018-06-09T11:48:04.737Z,26.2
2018-06-09T11:50:05.418Z,26.2
2018-06-09T11:52:05.311Z,26.2
2018-06-09T11:54:04.781Z,26.2
2018-06-09T11:56:08.066Z,26.2
2018-06-09T11:58:04.746Z,26.3
2018-06-09T12:00:07.476Z,26.2
2018-06-09T12:02:12.737Z,26.2
2018-06-09T12:04:05.426Z,26.2
2018-06-09T12:06:04.628Z,26.2
2018-06-09T12:08:04.922Z,26.2
2018-06-09T12:10:07.162Z,26.2
2018-06-09T12:12:04.837Z,26.2
2018-06-09T12:14:05.535Z,26.2
2018-06-09T12:16:05.200Z,26.2
2018-06-09T12:18:07.750Z,26.2
2018-06-09T12:20:07.498Z,26.2
2018-06-09T12:22:04.756Z,26.2
2018-06-09T12:24:04.970Z,26.2
2018-06-09T12:26:04.911Z,26.3
2018-06-09T12:28:07.241Z,26.3
2018-06-09T12:30:05.413Z,26.3
2018-06-09T12:32:07.301Z,26.3
2018-06-09T12:34:07.531Z,26.2
2018-06-09T12:36:05.192Z,26.2
2018-06-09T12:38:08.296Z,26.3
2018-06-09T12:40:04.995Z,26.3
2018-06-09T12:42:04.704Z,26.2
2018-06-09T12:44:13.099Z,26.2
2018-06-09T12:46:05.306Z,26.2
2018-06-09T12:48:05.478Z,26.2
2018-06-09T12:50:05.167Z,26.2
2018-06-09T12:52:04.919Z,26.2
2018-06-09T12:54:07.126Z,26.3
2018-06-09T12:56:04.816Z,26.3
2018-06-09T12:58:05.602Z,26.3
2018-06-09T13:00:07.798Z,26.3
2018-06-09T13:02:05.028Z,26.3
2018-06-09T13:04:04.800Z,26.3
2018-06-09T13:06:05.516Z,26.3
2018-06-09T13:08:05.229Z,26.4
2018-06-09T13:10:12.494Z,26.3
2018-06-09T13:12:05.171Z,26.4
2018-06-09T13:14:05.449Z,26.4
2018-06-09T13:16:10.017Z,26.4
2018-06-09T13:18:05.446Z,26.4
2018-06-09T13:20:07.228Z,26.3
2018-06-09T13:22:04.970Z,26.3
2018-06-09T13:24:07.739Z,26.3
2018-06-09T13:26:05.430Z,26.3
2018-06-09T13:28:10.163Z,26.5
2018-06-09T13:30:04.844Z,26.5
2018-06-09T13:32:05.594Z,26.5
2018-06-09T13:34:05.248Z,26.5
2018-06-09T13:36:05.021Z,26.6
2018-06-09T13:38:04.826Z,26.6
2018-06-09T13:40:08.044Z,26.6
2018-06-09T13:42:04.728Z,26.6
2018-06-09T13:44:05.381Z,26.5
2018-06-09T13:46:05.183Z,26.5
2018-06-09T13:48:04.980Z,26.5
2018-06-09T13:50:04.658Z,26.4
2018-06-09T13:52:07.864Z,26.6
2018-06-09T13:54:05.621Z,26.5
2018-06-09T13:56:05.100Z,26.6
2018-06-09T13:58:04.827Z,26.6
2018-06-09T14:00:05.552Z,26.6
2018-06-09T14:02:04.789Z,26.7
2018-06-09T14:04:05.478Z,26.7
2018-06-09T14:06:05.211Z,26.7
2018-06-09T14:08:05.119Z,26.7
2018-06-09T14:10:05.118Z,26.7
2018-06-09T14:12:04.900Z,26.7
2018-06-09T14:14:05.580Z,26.7
2018-06-09T14:16:07.951Z,26.8
2018-06-09T14:18:07.378Z,26.7
2018-06-09T14:20:05.084Z,26.7
2018-06-09T14:22:04.854Z,26.6
2018-06-09T14:24:04.924Z,26.7
2018-06-09T14:26:05.677Z,26.8
2018-06-09T14:28:05.500Z,26.8
2018-06-09T14:30:05.602Z,26.8
2018-06-09T14:32:05.382Z,26.8
2018-06-09T14:34:05.049Z,26.8
2018-06-09T14:36:04.801Z,26.8
2018-06-09T14:38:05.547Z,26.8
2018-06-09T14:40:05.198Z,26.8
2018-06-09T14:42:04.885Z,26.8
2018-06-09T14:44:05.657Z,26.9
2018-06-09T14:46:05.397Z,26.9
2018-06-09T14:48:04.774Z,26.9
2018-06-09T14:50:05.505Z,26.9
2018-06-09T14:52:05.425Z,26.9
2018-06-09T14:54:05.116Z,26.8
2018-06-09T14:56:05.333Z,26.8
2018-06-09T14:58:05.107Z,26.8
2018-06-09T15:00:05.047Z,26.8
2018-06-09T15:02:07.245Z,26.9
2018-06-09T15:04:04.874Z,26.9
2018-06-09T15:06:08.142Z,26.9
2018-06-09T15:08:04.973Z,26.9
2018-06-09T15:10:05.241Z,26.9
2018-06-09T15:12:05.445Z,26.9
2018-06-09T15:14:05.189Z,27
2018-06-09T15:16:04.899Z,27
2018-06-09T15:18:04.994Z,27
2018-06-09T15:20:05.221Z,27
2018-06-09T15:22:04.901Z,27
2018-06-09T15:24:05.107Z,27
2018-06-09T15:26:05.325Z,27
2018-06-09T15:28:08.740Z,27
2018-06-09T15:30:04.814Z,27.1
2018-06-09T15:32:08.001Z,27.1
2018-06-09T15:34:04.970Z,27.1
2018-06-09T15:36:04.669Z,27.1
2018-06-09T15:38:05.653Z,27.1
2018-06-09T15:40:08.290Z,27.1
2018-06-09T15:42:04.981Z,27.1
2018-06-09T15:44:07.440Z,27
2018-06-09T15:46:05.423Z,27
2018-06-09T15:48:05.421Z,27.1
2018-06-09T15:50:05.528Z,27.2
2018-06-09T15:52:05.289Z,27.1
2018-06-09T15:54:09.830Z,27.1
2018-06-09T15:56:05.628Z,27.2
2018-06-09T15:58:05.293Z,27.2
2018-06-09T16:00:04.975Z,27.2
2018-06-09T16:02:04.682Z,27.2
2018-06-09T16:04:05.332Z,27.2
2018-06-09T16:06:07.556Z,27.2
2018-06-09T16:08:05.240Z,27.2
2018-06-09T16:10:04.938Z,27.2
2018-06-09T16:12:04.720Z,27.2
2018-06-09T16:14:05.484Z,27.2
2018-06-09T16:16:07.764Z,27.2
2018-06-09T16:18:04.688Z,27.2
2018-06-09T16:20:06.223Z,27.3
2018-06-09T16:22:04.660Z,27.3
2018-06-09T16:24:07.450Z,27.3
2018-06-09T16:26:07.147Z,27.3
2018-06-09T16:28:04.824Z,27.3
2018-06-09T16:30:08.039Z,27.3
2018-06-09T16:32:04.758Z,27.3
2018-06-09T16:34:04.978Z,27.3
2018-06-09T16:36:10.332Z,27.2
2018-06-09T16:38:05.570Z,27.2
2018-06-09T16:40:05.272Z,27.3
2018-06-09T16:42:05.249Z,27.3
2018-06-09T16:44:05.560Z,27.3
2018-06-09T16:46:05.335Z,27.3
2018-06-09T16:48:05.540Z,27.3
2018-06-09T16:50:05.538Z,27.3
2018-06-09T16:52:05.253Z,27.3
2018-06-09T16:54:05.079Z,27.3
2018-06-09T16:56:05.098Z,27.3
2018-06-09T16:58:07.336Z,27.3
2018-06-09T17:00:06.143Z,27.3
2018-06-09T17:02:07.645Z,27.3
2018-06-09T17:04:05.478Z,27.3
2018-06-09T17:06:05.469Z,27.2
2018-06-09T17:08:05.152Z,27.3
2018-06-09T17:10:04.988Z,27.3
2018-06-09T17:12:05.197Z,27.4
2018-06-09T17:14:05.610Z,27.3
2018-06-09T17:16:05.349Z,27.3
2018-06-09T17:18:07.864Z,27.3
2018-06-09T17:20:05.625Z,27.3
2018-06-09T17:22:04.957Z,27.4
2018-06-09T17:24:04.671Z,27.4
2018-06-09T17:26:05.426Z,27.4
2018-06-09T17:28:09.811Z,27.4
2018-06-09T17:30:05.579Z,27.4
2018-06-09T17:32:05.292Z,27.4
2018-06-09T17:34:07.817Z,27.4
2018-06-09T17:36:05.549Z,27.4
2018-06-09T17:38:07.858Z,27.4
2018-06-09T17:40:04.646Z,27.4
2018-06-09T17:42:05.535Z,27.4
2018-06-09T17:44:05.327Z,27.5
2018-06-09T17:46:05.317Z,27.4
2018-06-09T17:48:05.103Z,27.5
2018-06-09T17:50:05.302Z,27.5
2018-06-09T17:52:05.081Z,27.4
2018-06-09T17:54:05.676Z,27.4
2018-06-09T17:56:05.768Z,27.4
2018-06-09T17:58:08.202Z,27.4
2018-06-09T18:00:05.415Z,27.4
2018-06-09T18:02:07.912Z,27.4
2018-06-09T18:04:05.683Z,27.4
2018-06-09T18:06:06.109Z,27.4
2018-06-09T18:08:11.395Z,27.4
2018-06-09T18:10:05.264Z,27.5
2018-06-09T18:12:05.152Z,27.4
2018-06-09T18:14:11.630Z,27.5
2018-06-09T18:16:07.877Z,27.5
2018-06-09T18:18:07.983Z,27.5
2018-06-09T18:20:05.696Z,27.4
2018-06-09T18:22:04.706Z,27.5
2018-06-09T18:24:08.046Z,27.5
2018-06-09T18:26:05.128Z,27.5
2018-06-09T18:28:05.326Z,27.4
2018-06-09T18:30:05.691Z,27.4
2018-06-09T18:32:08.303Z,27.4
2018-06-09T18:34:08.397Z,27.4
2018-06-09T18:36:05.939Z,27.4
2018-06-09T18:38:05.096Z,27.5
2018-06-09T18:40:07.287Z,27.5
2018-06-09T18:42:05.684Z,27.5
2018-06-09T18:44:08.903Z,27.5
2018-06-09T18:46:09.921Z,27.5
2018-06-09T18:48:04.634Z,27.5
2018-06-09T18:50:05.570Z,27.5
2018-06-09T18:52:05.439Z,27.5
2018-06-09T18:54:05.152Z,27.5
2018-06-09T18:56:04.841Z,27.5
2018-06-09T18:58:05.566Z,27.5
2018-06-09T19:00:07.827Z,27.3
2018-06-09T19:02:10.719Z,27.3
2018-06-09T19:04:05.093Z,27.3
2018-06-09T19:06:07.902Z,27.3
2018-06-09T19:08:05.667Z,27.3
2018-06-09T19:10:12.981Z,27.4
2018-06-09T19:12:04.870Z,27.3
2018-06-09T19:14:05.831Z,27.4
2018-06-09T19:16:05.569Z,27.3
2018-06-09T19:18:07.512Z,27.4
2018-06-09T19:20:04.748Z,27.4
2018-06-09T19:22:05.589Z,27.4
2018-06-09T19:24:04.941Z,27.4
2018-06-09T19:26:04.620Z,27.3
2018-06-09T19:28:05.303Z,27.4
2018-06-09T19:30:07.518Z,27.3
2018-06-09T19:32:05.540Z,27.3
2018-06-09T19:34:08.020Z,27.3
2018-06-09T19:36:04.764Z,27.3
2018-06-09T19:38:05.240Z,27.3
2018-06-09T19:40:05.014Z,27.3
2018-06-09T19:42:07.343Z,27.3
2018-06-09T19:44:10.040Z,27.3
2018-06-09T19:46:07.305Z,27.3
2018-06-09T19:48:10.303Z,27.3
2018-06-09T19:50:05.636Z,27.3
2018-06-09T19:53:16.238Z,27.3
2018-06-09T19:54:07.731Z,27.3
2018-06-09T19:56:07.938Z,27.3
2018-06-09T19:58:05.630Z,27.3
2018-06-09T20:00:05.558Z,27.4
2018-06-09T20:02:05.319Z,27.3
2018-06-09T20:04:07.639Z,27.3
2018-06-09T20:06:05.330Z,27.3
2018-06-09T20:08:05.582Z,27.3
2018-06-09T20:10:06.785Z,27.4
2018-06-09T20:12:05.626Z,27.3
2018-06-09T20:14:05.371Z,27.4
2018-06-09T20:16:07.164Z,27.3
2018-06-09T20:18:05.028Z,27.3
2018-06-09T20:20:04.953Z,27.3
2018-06-09T20:24:20.687Z,27.3
2018-06-09T20:26:20.423Z,27.3
2018-06-09T20:28:05.688Z,27.3
2018-06-09T20:30:04.926Z,27.3
2018-06-09T20:32:04.657Z,27.3
2018-06-09T20:34:35.946Z,27.3
2018-06-09T20:36:04.688Z,27.3
2018-06-09T20:38:05.370Z,27.3
2018-06-09T20:40:05.087Z,27.3
2018-06-09T20:42:05.420Z,27.2
2018-06-09T20:44:05.153Z,27.2
2018-06-09T20:46:04.857Z,27.2
2018-06-09T20:48:05.027Z,27.2
2018-06-09T20:50:06.049Z,27.2
2018-06-09T20:52:04.860Z,27.2
2018-06-09T20:54:05.319Z,27.2
2018-06-09T20:56:07.544Z,27.2
2018-06-09T20:58:04.779Z,27.2
2018-06-09T21:00:10.202Z,27.2
2018-06-09T21:02:04.869Z,27.2
2018-06-09T21:04:05.618Z,27.2
2018-06-09T21:06:07.916Z,27.2
2018-06-09T21:08:07.735Z,27.2
2018-06-09T21:10:05.552Z,27.2
2018-06-09T21:12:10.296Z,27.1
2018-06-09T21:14:05.149Z,27.1
2018-06-09T21:16:04.930Z,27.1
2018-06-09T21:18:04.868Z,27.2
2018-06-09T21:20:10.653Z,27.1
2018-06-09T21:22:05.442Z,27.1
2018-06-09T21:24:05.143Z,27.1
2018-06-09T21:26:07.940Z,27
2018-06-09T21:28:07.246Z,27
2018-06-09T21:30:05.454Z,27
2018-06-09T21:32:04.939Z,27
2018-06-09T21:34:06.119Z,27
2018-06-09T21:36:07.353Z,26.9
2018-06-09T21:38:05.357Z,26.8
2018-06-09T21:40:05.045Z,26.9
2018-06-09T21:42:04.716Z,26.9
2018-06-09T21:44:08.008Z,26.8
2018-06-09T21:46:05.251Z,26.8
2018-06-09T21:48:04.955Z,26.8
2018-06-09T21:50:04.913Z,26.8
2018-06-09T21:52:05.628Z,26.8
2018-06-09T21:54:05.464Z,26.8
2018-06-09T21:56:05.226Z,26.8
2018-06-09T21:58:04.896Z,26.7
2018-06-09T22:00:04.856Z,26.7
2018-06-09T22:02:10.712Z,26.7
2018-06-09T22:04:04.646Z,26.7
2018-06-09T22:06:05.327Z,26.6
2018-06-09T22:08:05.061Z,26.7
2018-06-09T22:10:05.280Z,26.7
2018-06-09T22:12:05.616Z,26.7
2018-06-09T22:14:05.412Z,26.8
2018-06-09T22:16:05.141Z,26.8
2018-06-09T22:18:05.073Z,26.8
2018-06-09T22:20:10.089Z,26.8
2018-06-09T22:22:04.814Z,26.9
2018-06-09T22:24:04.675Z,26.8
2018-06-09T22:26:05.361Z,26.7
2018-06-09T22:28:07.598Z,26.8
2018-06-09T22:30:05.374Z,26.8
2018-06-09T22:32:05.117Z,26.9
2018-06-09T22:34:07.937Z,26.9
2018-06-09T22:36:05.146Z,26.9
2018-06-09T22:38:04.919Z,26.9
2018-06-09T22:40:04.627Z,27
2018-06-09T22:42:04.859Z,27
2018-06-09T22:44:04.904Z,27
2018-06-09T22:46:04.662Z,27
2018-06-09T22:48:05.389Z,26.9
2018-06-09T22:50:04.644Z,27
2018-06-09T22:52:05.573Z,27
2018-06-09T22:54:08.049Z,27
2018-06-09T22:56:09.827Z,26.9
2018-06-09T22:58:05.495Z,26.9
2018-06-09T23:00:05.150Z,26.9
2018-06-09T23:02:04.905Z,27
2018-06-09T23:04:08.118Z,27.1
2018-06-09T23:06:04.818Z,27.1
2018-06-09T23:08:08.033Z,27.1
2018-06-09T23:10:07.188Z,27.2
2018-06-09T23:12:04.839Z,27.1
2018-06-09T23:14:10.854Z,27.1
2018-06-09T23:16:05.568Z,27.1
2018-06-09T23:18:10.489Z,27
2018-06-09T23:20:05.196Z,27
2018-06-09T23:22:05.011Z,27
2018-06-09T23:24:04.707Z,27.1
2018-06-09T23:26:05.445Z,27
2018-06-09T23:28:10.166Z,26.9
2018-06-09T23:30:07.401Z,27
2018-06-09T23:32:05.181Z,27
2018-06-09T23:34:04.971Z,27
2018-06-09T23:36:04.638Z,27.1
2018-06-09T23:38:05.495Z,27.1
2018-06-09T23:40:10.250Z,27.2
2018-06-09T23:42:05.483Z,27.2
2018-06-09T23:44:05.382Z,27.3
2018-06-09T23:46:07.626Z,27.3
2018-06-09T23:48:05.332Z,27.3
2018-06-09T23:50:05.058Z,27.3
2018-06-09T23:52:04.768Z,27.3
2018-06-09T23:54:05.431Z,27.3
2018-06-09T23:56:05.401Z,27.4
2018-06-09T23:58:05.142Z,27.4
